Terminal Aerodrome Forecast
Issued by NWS Billings, MT

Home | Current Version | Previous Version | Text Only | Print | Product List | Glossary On
Versions: 1 2 3 4 5 6 7 8 9 10 11 12 13 14 15 16 17 18 19 20 21 22 23 24 25 26 27 28 29 30 31 32 33 34
000
FTUS45 KBYZ 171728
TAFMLS
TAF
KMLS 171728Z 1718/1818 23007KT P6SM VCSH BKN050
     FM172200 07012KT P6SM VCSH FEW020 SCT050 OVC080
     FM180500 07015G25KT 2SM -SN BR SCT015 BKN030
     FM180700 03015G25KT 1/2SM SN FZFG BKN015 OVC025
     FM181300 33015G25KT P6SM VCSH SCT010 BKN020=

USA.gov is the U.S. government's official web portal to all federal, state and local government web resources and services.